createdAt,value
2022-08-26T00:02:07.510Z,23.40
2022-08-26T00:07:51.647Z,23.40
2022-08-26T00:13:36.075Z,23.30
2022-08-26T00:18:56.451Z,23.20
2022-08-26T00:24:14.271Z,23.00
2022-08-26T00:29:57.431Z,23.00
2022-08-26T00:32:24.586Z,22.90
2022-08-26T00:38:09.675Z,22.90
2022-08-26T00:47:00.069Z,22.80
2022-08-26T00:49:52.975Z,22.70
2022-08-26T00:55:40.864Z,22.60
2022-08-26T01:01:28.135Z,22.60
2022-08-26T01:07:15.259Z,22.50
2022-08-26T01:10:11.399Z,22.50
2022-08-26T01:16:05.404Z,22.40
2022-08-26T01:22:06.415Z,22.30
2022-08-26T01:27:53.937Z,22.30
2022-08-26T01:30:52.913Z,22.20
2022-08-26T01:37:08.031Z,22.20
2022-08-26T01:40:07.740Z,22.10
2022-08-26T01:45:56.762Z,22.10
2022-08-26T01:51:44.300Z,22.00
2022-08-26T01:57:28.372Z,22.00
2022-08-26T01:59:58.863Z,21.90
2022-08-26T02:03:14.104Z,21.90
2022-08-26T02:06:33.522Z,21.90
2022-08-26T02:11:53.392Z,21.80
2022-08-26T02:17:46.710Z,21.80
2022-08-26T02:20:38.919Z,21.70
2022-08-26T02:26:24.271Z,21.70
2022-08-26T02:32:25.107Z,21.60
2022-08-26T02:38:11.638Z,21.60
2022-08-26T02:41:03.765Z,21.50
2022-08-26T02:46:47.077Z,21.50
2022-08-26T02:52:33.323Z,21.40
2022-08-26T02:58:18.239Z,21.30
2022-08-26T03:01:21.585Z,21.30
2022-08-26T03:07:06.458Z,21.20
2022-08-26T03:12:49.279Z,21.10
2022-08-26T03:18:35.765Z,21.00
2022-08-26T03:21:10.901Z,21.00
2022-08-26T03:26:54.304Z,20.90
2022-08-26T03:30:05.624Z,20.90
2022-08-26T03:32:57.288Z,20.80
2022-08-26T03:38:40.464Z,20.80
2022-08-26T03:44:26.803Z,20.70
2022-08-26T03:50:12.667Z,20.70
2022-08-26T03:55:55.663Z,20.60
2022-08-26T04:01:16.138Z,20.50
2022-08-26T04:06:59.929Z,20.50
2022-08-26T04:09:27.644Z,20.50
2022-08-26T04:15:13.925Z,20.40
2022-08-26T04:20:57.481Z,20.40
2022-08-26T04:26:43.729Z,20.30
2022-08-26T04:32:28.031Z,20.30
2022-08-26T04:35:25.480Z,20.30
2022-08-26T04:41:15.447Z,20.30
2022-08-26T04:44:09.051Z,20.40
2022-08-26T04:49:55.640Z,20.40
2022-08-26T04:55:42.864Z,20.40
2022-08-26T05:01:29.872Z,20.50
2022-08-26T05:07:13.563Z,20.60
2022-08-26T05:13:01.359Z,20.60
2022-08-26T05:15:54.453Z,20.60
2022-08-26T05:21:39.263Z,20.70
2022-08-26T05:27:22.199Z,20.80
2022-08-26T05:32:40.652Z,20.90
2022-08-26T05:38:25.227Z,21.00
2022-08-26T05:44:22.691Z,21.00
2022-08-26T05:47:14.350Z,21.10
2022-08-26T05:52:59.016Z,21.20
2022-08-26T05:58:43.867Z,21.20
2022-08-26T06:04:31.358Z,21.20
2022-08-26T06:07:43.155Z,21.30
2022-08-26T06:13:11.653Z,21.30
2022-08-26T06:18:58.351Z,21.40
2022-08-26T06:25:02.954Z,21.50
2022-08-26T06:30:48.122Z,21.60
2022-08-26T06:36:09.055Z,21.70
2022-08-26T06:42:02.952Z,21.70
2022-08-26T06:47:46.224Z,21.80
2022-08-26T06:50:41.984Z,21.80
2022-08-26T06:56:28.610Z,21.90
2022-08-26T07:02:13.542Z,22.00
2022-08-26T07:07:31.543Z,22.20
2022-08-26T07:12:49.510Z,22.30
2022-08-26T07:18:09.220Z,22.40
2022-08-26T07:21:03.934Z,22.50
2022-08-26T07:26:47.426Z,22.60
2022-08-26T07:32:33.754Z,22.80
2022-08-26T07:35:26.218Z,22.80
2022-08-26T07:41:08.921Z,23.00
2022-08-26T07:46:53.451Z,23.10
2022-08-26T07:52:15.457Z,23.20
2022-08-26T07:58:00.289Z,23.40
2022-08-26T08:03:43.634Z,23.50
2022-08-26T08:09:26.667Z,23.70
2022-08-26T08:14:46.802Z,23.80
2022-08-26T08:20:08.496Z,24.00
2022-08-26T08:23:28.079Z,24.10
2022-08-26T08:26:20.985Z,24.20
2022-08-26T08:32:05.309Z,24.40
2022-08-26T08:37:54.202Z,24.60
2022-08-26T08:40:46.719Z,24.60
2022-08-26T08:46:33.396Z,24.70
2022-08-26T08:52:32.204Z,24.80
2022-08-26T08:58:23.583Z,25.00
2022-08-26T09:01:28.718Z,25.00
2022-08-26T09:04:42.604Z,25.20
2022-08-26T09:07:39.678Z,25.30
2022-08-26T09:13:31.721Z,25.60
2022-08-26T09:19:49.569Z,25.90
2022-08-26T09:22:44.289Z,26.00
2022-08-26T09:28:44.882Z,26.20
2022-08-26T09:34:29.205Z,26.50
2022-08-26T09:36:59.999Z,26.60
2022-08-26T09:40:20.776Z,26.80
2022-08-26T09:43:22.401Z,26.90
2022-08-26T09:49:39.858Z,27.30
2022-08-26T09:55:24.873Z,28.00
2022-08-26T10:00:56.960Z,29.00
2022-08-26T10:06:56.181Z,29.90
2022-08-26T10:09:49.054Z,30.30
2022-08-26T10:16:10.972Z,30.80
2022-08-26T10:22:28.746Z,31.20
2022-08-26T10:25:26.267Z,31.70
2022-08-26T10:28:30.088Z,32.20
2022-08-26T10:31:29.306Z,32.80
2022-08-26T10:37:20.371Z,33.90
2022-08-26T10:43:57.518Z,35.00
2022-08-26T10:47:06.202Z,35.60
2022-08-26T10:50:03.078Z,36.10
2022-08-26T10:53:25.118Z,36.60
2022-08-26T10:56:37.375Z,37.00
2022-08-26T10:59:51.637Z,37.40
2022-08-26T11:05:41.845Z,37.80
2022-08-26T11:11:39.606Z,38.10
2022-08-26T11:17:46.629Z,38.60
2022-08-26T11:23:32.731Z,39.20
2022-08-26T11:30:00.931Z,39.60
2022-08-26T11:32:58.353Z,39.80
2022-08-26T11:38:42.856Z,40.00
2022-08-26T11:44:29.237Z,40.20
2022-08-26T11:53:18.558Z,40.20
2022-08-26T11:59:18.918Z,40.50
2022-08-26T12:05:08.809Z,40.60
2022-08-26T12:10:33.494Z,40.60
2022-08-26T12:16:23.955Z,40.50
2022-08-26T12:22:28.843Z,40.40
2022-08-26T12:25:23.744Z,40.30
2022-08-26T12:31:07.716Z,40.30
2022-08-26T12:36:56.375Z,40.40
2022-08-26T12:42:42.044Z,40.40
2022-08-26T12:51:29.428Z,40.30
2022-08-26T12:54:41.820Z,40.30
2022-08-26T12:57:36.458Z,40.40
2022-08-26T13:00:39.572Z,40.40
2022-08-26T13:06:36.538Z,40.50
2022-08-26T13:12:28.983Z,40.50
2022-08-26T13:18:11.766Z,40.50
2022-08-26T13:21:37.557Z,40.50
2022-08-26T13:27:30.498Z,40.20
2022-08-26T13:33:14.699Z,39.60
2022-08-26T13:38:34.086Z,38.80
2022-08-26T13:44:18.197Z,38.20
2022-08-26T13:49:36.781Z,38.00
2022-08-26T13:52:03.890Z,37.80
2022-08-26T13:57:46.659Z,37.60
2022-08-26T14:03:30.741Z,37.50
2022-08-26T14:08:49.503Z,37.10
2022-08-26T14:11:16.387Z,36.90
2022-08-26T14:17:00.622Z,36.60
2022-08-26T14:23:03.650Z,36.40
2022-08-26T14:31:15.870Z,36.00
2022-08-26T14:36:35.087Z,35.70
2022-08-26T14:42:22.838Z,35.30
2022-08-26T14:48:09.922Z,35.00
2022-08-26T14:54:11.407Z,34.80
2022-08-26T14:57:07.007Z,34.70
2022-08-26T15:02:49.944Z,34.50
2022-08-26T15:05:48.059Z,34.40
2022-08-26T15:11:31.480Z,34.20
2022-08-26T15:13:59.931Z,34.10
2022-08-26T15:19:47.465Z,33.90
2022-08-26T15:22:42.142Z,33.80
2022-08-26T15:28:26.165Z,33.50
2022-08-26T15:33:45.595Z,33.10
2022-08-26T15:39:29.908Z,32.70
2022-08-26T15:45:12.379Z,32.30
2022-08-26T15:53:45.605Z,31.80
2022-08-26T15:56:38.128Z,31.60
2022-08-26T15:59:33.292Z,31.50
2022-08-26T16:05:18.291Z,31.40
2022-08-26T16:10:45.466Z,31.10
2022-08-26T16:13:41.712Z,31.00
2022-08-26T16:19:27.986Z,30.80
2022-08-26T16:25:11.294Z,30.60
2022-08-26T16:30:54.791Z,30.40
2022-08-26T16:36:39.235Z,30.10
2022-08-26T16:42:23.609Z,29.90
2022-08-26T16:48:07.562Z,29.70
2022-08-26T16:51:00.763Z,29.60
2022-08-26T16:56:44.566Z,29.40
2022-08-26T17:00:02.219Z,29.30
2022-08-26T17:02:56.388Z,29.30
2022-08-26T17:08:42.068Z,29.10
2022-08-26T17:14:25.411Z,29.00
2022-08-26T17:20:12.655Z,28.80
2022-08-26T17:25:55.929Z,28.70
2022-08-26T17:31:39.920Z,28.60
2022-08-26T17:37:26.955Z,28.40
2022-08-26T17:40:22.378Z,28.40
2022-08-26T17:46:08.455Z,28.20
2022-08-26T17:51:53.047Z,28.10
2022-08-26T17:57:40.680Z,28.10
2022-08-26T18:03:26.289Z,27.90
2022-08-26T18:08:45.035Z,27.80
2022-08-26T18:14:28.805Z,27.60
2022-08-26T18:17:20.539Z,27.50
2022-08-26T18:23:06.939Z,27.40
2022-08-26T18:28:24.716Z,27.30
2022-08-26T18:34:08.528Z,27.30
2022-08-26T18:39:51.945Z,27.20
2022-08-26T18:45:35.409Z,27.10
2022-08-26T18:51:29.736Z,27.10
2022-08-26T18:54:22.080Z,27.00
2022-08-26T19:00:07.833Z,27.00
2022-08-26T19:08:44.644Z,26.80
2022-08-26T19:11:37.585Z,26.80
2022-08-26T19:17:26.897Z,26.70
2022-08-26T19:23:28.167Z,26.60
2022-08-26T19:25:57.309Z,26.60
2022-08-26T19:31:42.091Z,26.60
2022-08-26T19:37:27.183Z,26.50
2022-08-26T19:39:55.803Z,26.40
2022-08-26T19:45:38.587Z,26.40
2022-08-26T19:48:30.319Z,26.30
2022-08-26T19:54:17.562Z,26.20
2022-08-26T19:57:09.584Z,26.10
2022-08-26T20:02:53.800Z,26.00
2022-08-26T20:08:39.300Z,25.90
2022-08-26T20:13:59.661Z,25.80
2022-08-26T20:20:01.688Z,25.60
2022-08-26T20:25:47.026Z,25.50
2022-08-26T20:28:38.613Z,25.50
2022-08-26T20:34:22.707Z,25.40
2022-08-26T20:40:08.278Z,25.40
2022-08-26T20:45:52.007Z,25.30
2022-08-26T20:51:10.456Z,25.30
2022-08-26T20:54:03.616Z,25.30
2022-08-26T20:59:49.068Z,25.30
2022-08-26T21:05:31.906Z,25.30
2022-08-26T21:08:23.457Z,25.30
2022-08-26T21:14:16.094Z,25.30
2022-08-26T21:20:00.030Z,25.30
2022-08-26T21:25:43.150Z,25.30
2022-08-26T21:31:27.367Z,25.20
2022-08-26T21:34:20.171Z,25.20
2022-08-26T21:40:04.927Z,25.10
2022-08-26T21:45:48.204Z,25.10
2022-08-26T21:51:07.199Z,25.10
2022-08-26T21:56:50.769Z,25.10
2022-08-26T21:59:42.745Z,25.10
2022-08-26T22:05:25.653Z,25.00
2022-08-26T22:11:14.169Z,25.00
2022-08-26T22:16:58.285Z,25.00
2022-08-26T22:22:41.661Z,25.00
2022-08-26T22:28:26.486Z,25.00
2022-08-26T22:31:19.246Z,25.00
2022-08-26T22:37:12.197Z,24.90
2022-08-26T22:42:58.728Z,24.90
2022-08-26T22:48:44.189Z,24.80
2022-08-26T22:54:27.990Z,24.80
2022-08-26T22:57:20.614Z,24.80
2022-08-26T23:03:04.805Z,24.80
2022-08-26T23:08:48.166Z,24.80
2022-08-26T23:11:42.812Z,24.70
2022-08-26T23:17:26.064Z,24.70
2022-08-26T23:23:09.924Z,24.70
2022-08-26T23:31:46.129Z,24.70
2022-08-26T23:34:55.952Z,24.70
2022-08-26T23:40:16.531Z,24.70
2022-08-26T23:46:02.227Z,24.70
2022-08-26T23:52:03.956Z,24.70
2022-08-26T23:54:56.043Z,24.70
